sensor_id;sensor_type;location;lat;lon;timestamp;P1;durP1;ratioP1;P2;durP2;ratioP2
35530;SDS011;21637;53.352;-6.356;2024-02-21T00:00:46;11.32;;;6.90;;
35530;SDS011;21637;53.352;-6.356;2024-02-21T00:03:12;10.48;;;4.32;;
35530;SDS011;21637;53.352;-6.356;2024-02-21T00:05:38;11.60;;;3.78;;
35530;SDS011;21637;53.352;-6.356;2024-02-21T00:08:03;6.05;;;3.00;;
35530;SDS011;21637;53.352;-6.356;2024-02-21T00:10:29;10.30;;;2.92;;
35530;SDS011;21637;53.352;-6.356;2024-02-21T00:12:57;11.70;;;2.85;;
35530;SDS011;21637;53.352;-6.356;2024-02-21T00:15:24;4.75;;;1.30;;
35530;SDS011;21637;53.352;-6.356;2024-02-21T00:17:50;5.30;;;1.95;;
35530;SDS011;21637;53.352;-6.356;2024-02-21T00:20:16;3.90;;;2.00;;
35530;SDS011;21637;53.352;-6.356;2024-02-21T00:22:42;3.17;;;1.10;;
35530;SDS011;21637;53.352;-6.356;2024-02-21T00:25:09;4.05;;;1.13;;
35530;SDS011;21637;53.352;-6.356;2024-02-21T00:27:35;4.15;;;1.40;;
35530;SDS011;21637;53.352;-6.356;2024-02-21T00:30:01;2.17;;;1.27;;
35530;SDS011;21637;53.352;-6.356;2024-02-21T00:32:27;4.75;;;1.50;;
35530;SDS011;21637;53.352;-6.356;2024-02-21T00:34:53;6.28;;;1.58;;
35530;SDS011;21637;53.352;-6.356;2024-02-21T00:37:19;6.82;;;1.63;;
35530;SDS011;21637;53.352;-6.356;2024-02-21T00:39:44;4.50;;;1.38;;
35530;SDS011;21637;53.352;-6.356;2024-02-21T00:42:10;6.63;;;1.40;;
35530;SDS011;21637;53.352;-6.356;2024-02-21T00:44:36;6.00;;;1.60;;
35530;SDS011;21637;53.352;-6.356;2024-02-21T00:47:02;3.40;;;1.45;;
35530;SDS011;21637;53.352;-6.356;2024-02-21T00:49:27;5.70;;;1.20;;
35530;SDS011;21637;53.352;-6.356;2024-02-21T00:51:53;4.68;;;1.02;;
35530;SDS011;21637;53.352;-6.356;2024-02-21T00:54:19;4.45;;;1.25;;
35530;SDS011;21637;53.352;-6.356;2024-02-21T00:56:45;6.10;;;1.30;;
35530;SDS011;21637;53.352;-6.356;2024-02-21T00:59:10;4.18;;;1.38;;
35530;SDS011;21637;53.352;-6.356;2024-02-21T01:01:36;4.90;;;1.38;;
35530;SDS011;21637;53.352;-6.356;2024-02-21T01:04:02;3.25;;;1.33;;
35530;SDS011;21637;53.352;-6.356;2024-02-21T01:06:27;5.35;;;1.30;;
35530;SDS011;21637;53.352;-6.356;2024-02-21T01:08:53;4.97;;;1.48;;
35530;SDS011;21637;53.352;-6.356;2024-02-21T01:11:19;4.38;;;1.02;;
35530;SDS011;21637;53.352;-6.356;2024-02-21T01:13:45;5.30;;;1.70;;
35530;SDS011;21637;53.352;-6.356;2024-02-21T01:16:10;4.38;;;1.30;;
35530;SDS011;21637;53.352;-6.356;2024-02-21T01:18:39;9.15;;;1.67;;
35530;SDS011;21637;53.352;-6.356;2024-02-21T01:21:05;7.45;;;1.35;;
35530;SDS011;21637;53.352;-6.356;2024-02-21T01:23:32;5.88;;;1.50;;
35530;SDS011;21637;53.352;-6.356;2024-02-21T01:25:59;5.60;;;1.20;;
35530;SDS011;21637;53.352;-6.356;2024-02-21T01:28:25;7.35;;;1.52;;
35530;SDS011;21637;53.352;-6.356;2024-02-21T01:30:51;4.22;;;1.23;;
35530;SDS011;21637;53.352;-6.356;2024-02-21T01:33:17;5.72;;;1.58;;
35530;SDS011;21637;53.352;-6.356;2024-02-21T01:35:43;6.95;;;1.33;;
35530;SDS011;21637;53.352;-6.356;2024-02-21T01:38:08;3.22;;;1.40;;
35530;SDS011;21637;53.352;-6.356;2024-02-21T01:40:34;5.10;;;1.58;;
35530;SDS011;21637;53.352;-6.356;2024-02-21T01:43:00;3.47;;;1.20;;
35530;SDS011;21637;53.352;-6.356;2024-02-21T01:45:25;4.05;;;1.40;;
35530;SDS011;21637;53.352;-6.356;2024-02-21T01:47:51;3.97;;;1.63;;
35530;SDS011;21637;53.352;-6.356;2024-02-21T01:50:17;5.40;;;1.58;;
35530;SDS011;21637;53.352;-6.356;2024-02-21T01:52:43;4.10;;;1.50;;
35530;SDS011;21637;53.352;-6.356;2024-02-21T01:55:11;4.63;;;1.45;;
35530;SDS011;21637;53.352;-6.356;2024-02-21T01:57:39;9.60;;;1.83;;
35530;SDS011;21637;53.352;-6.356;2024-02-21T02:00:08;7.13;;;1.55;;
35530;SDS011;21637;53.352;-6.356;2024-02-21T02:02:35;9.38;;;1.65;;
35530;SDS011;21637;53.352;-6.356;2024-02-21T02:05:02;10.10;;;2.15;;
35530;SDS011;21637;53.352;-6.356;2024-02-21T02:07:31;5.30;;;1.42;;
35530;SDS011;21637;53.352;-6.356;2024-02-21T02:09:57;4.72;;;1.52;;
35530;SDS011;21637;53.352;-6.356;2024-02-21T02:12:23;4.75;;;1.55;;
35530;SDS011;21637;53.352;-6.356;2024-02-21T02:15:01;5.15;;;1.60;;
35530;SDS011;21637;53.352;-6.356;2024-02-21T02:17:31;3.95;;;1.10;;
35530;SDS011;21637;53.352;-6.356;2024-02-21T02:19:57;4.30;;;1.48;;
35530;SDS011;21637;53.352;-6.356;2024-02-21T02:22:23;6.82;;;1.40;;
35530;SDS011;21637;53.352;-6.356;2024-02-21T02:24:54;3.67;;;1.40;;
35530;SDS011;21637;53.352;-6.356;2024-02-21T02:27:20;3.13;;;1.50;;
35530;SDS011;21637;53.352;-6.356;2024-02-21T02:29:48;4.80;;;1.05;;
35530;SDS011;21637;53.352;-6.356;2024-02-21T02:32:14;2.15;;;1.27;;
35530;SDS011;21637;53.352;-6.356;2024-02-21T02:34:40;4.03;;;1.27;;
35530;SDS011;21637;53.352;-6.356;2024-02-21T02:37:05;6.75;;;1.45;;
35530;SDS011;21637;53.352;-6.356;2024-02-21T02:39:31;1.83;;;1.00;;
35530;SDS011;21637;53.352;-6.356;2024-02-21T02:41:57;2.55;;;1.20;;
35530;SDS011;21637;53.352;-6.356;2024-02-21T02:44:23;2.30;;;0.88;;
35530;SDS011;21637;53.352;-6.356;2024-02-21T02:46:49;3.47;;;0.95;;
35530;SDS011;21637;53.352;-6.356;2024-02-21T02:49:15;2.00;;;1.00;;
35530;SDS011;21637;53.352;-6.356;2024-02-21T02:51:41;2.30;;;1.05;;
35530;SDS011;21637;53.352;-6.356;2024-02-21T02:54:09;3.30;;;1.05;;
35530;SDS011;21637;53.352;-6.356;2024-02-21T02:56:35;2.30;;;1.10;;
35530;SDS011;21637;53.352;-6.356;2024-02-21T02:59:01;5.60;;;1.40;;
35530;SDS011;21637;53.352;-6.356;2024-02-21T03:01:28;2.38;;;0.90;;
35530;SDS011;21637;53.352;-6.356;2024-02-21T03:03:54;4.20;;;1.20;;
35530;SDS011;21637;53.352;-6.356;2024-02-21T03:06:19;3.50;;;1.67;;
35530;SDS011;21637;53.352;-6.356;2024-02-21T03:08:45;4.10;;;1.42;;
35530;SDS011;21637;53.352;-6.356;2024-02-21T03:11:11;2.20;;;1.27;;
35530;SDS011;21637;53.352;-6.356;2024-02-21T03:13:37;2.17;;;1.20;;
35530;SDS011;21637;53.352;-6.356;2024-02-21T03:16:03;3.78;;;1.27;;
35530;SDS011;21637;53.352;-6.356;2024-02-21T03:18:29;2.58;;;1.20;;
35530;SDS011;21637;53.352;-6.356;2024-02-21T03:20:55;3.70;;;1.42;;
35530;SDS011;21637;53.352;-6.356;2024-02-21T03:23:20;5.43;;;1.75;;
35530;SDS011;21637;53.352;-6.356;2024-02-21T03:25:46;3.55;;;1.30;;
35530;SDS011;21637;53.352;-6.356;2024-02-21T03:28:12;2.90;;;1.38;;
35530;SDS011;21637;53.352;-6.356;2024-02-21T03:30:38;4.57;;;1.20;;
35530;SDS011;21637;53.352;-6.356;2024-02-21T03:33:03;3.38;;;1.30;;
35530;SDS011;21637;53.352;-6.356;2024-02-21T03:35:29;1.73;;;0.85;;
35530;SDS011;21637;53.352;-6.356;2024-02-21T03:37:55;3.40;;;1.00;;
35530;SDS011;21637;53.352;-6.356;2024-02-21T03:40:21;1.08;;;0.60;;
35530;SDS011;21637;53.352;-6.356;2024-02-21T03:42:47;0.77;;;0.40;;
35530;SDS011;21637;53.352;-6.356;2024-02-21T03:45:12;0.30;;;0.20;;
35530;SDS011;21637;53.352;-6.356;2024-02-21T03:47:38;0.30;;;0.30;;
35530;SDS011;21637;53.352;-6.356;2024-02-21T03:50:05;0.10;;;0.10;;
35530;SDS011;21637;53.352;-6.356;2024-02-21T03:52:31;0.68;;;0.20;;
35530;SDS011;21637;53.352;-6.356;2024-02-21T03:54:57;0.38;;;0.30;;
35530;SDS011;21637;53.352;-6.356;2024-02-21T03:57:22;0.32;;;0.30;;
35530;SDS011;21637;53.352;-6.356;2024-02-21T03:59:51;1.08;;;0.40;;
35530;SDS011;21637;53.352;-6.356;2024-02-21T04:02:17;0.30;;;0.30;;
35530;SDS011;21637;53.352;-6.356;2024-02-21T04:04:43;0.30;;;0.30;;
35530;SDS011;21637;53.352;-6.356;2024-02-21T04:07:13;1.10;;;0.20;;
35530;SDS011;21637;53.352;-6.356;2024-02-21T04:09:39;0.80;;;0.40;;
35530;SDS011;21637;53.352;-6.356;2024-02-21T04:12:05;0.40;;;0.40;;
35530;SDS011;21637;53.352;-6.356;2024-02-21T04:14:33;0.25;;;0.25;;
35530;SDS011;21637;53.352;-6.356;2024-02-21T04:16:59;0.43;;;0.43;;
35530;SDS011;21637;53.352;-6.356;2024-02-21T04:19:25;0.20;;;0.20;;
35530;SDS011;21637;53.352;-6.356;2024-02-21T04:21:51;0.38;;;0.38;;
35530;SDS011;21637;53.352;-6.356;2024-02-21T04:24:17;0.20;;;0.20;;
35530;SDS011;21637;53.352;-6.356;2024-02-21T04:26:42;0.88;;;0.28;;
35530;SDS011;21637;53.352;-6.356;2024-02-21T04:29:08;0.55;;;0.50;;
35530;SDS011;21637;53.352;-6.356;2024-02-21T04:31:35;0.40;;;0.40;;
35530;SDS011;21637;53.352;-6.356;2024-02-21T04:34:00;0.30;;;0.30;;
35530;SDS011;21637;53.352;-6.356;2024-02-21T04:36:27;0.40;;;0.40;;
35530;SDS011;21637;53.352;-6.356;2024-02-21T04:38:53;0.90;;;0.30;;
35530;SDS011;21637;53.352;-6.356;2024-02-21T04:41:19;0.20;;;0.20;;
35530;SDS011;21637;53.352;-6.356;2024-02-21T04:43:48;0.10;;;0.10;;
35530;SDS011;21637;53.352;-6.356;2024-02-21T04:46:14;1.17;;;0.47;;
35530;SDS011;21637;53.352;-6.356;2024-02-21T04:48:40;0.40;;;0.35;;
35530;SDS011;21637;53.352;-6.356;2024-02-21T04:51:07;0.85;;;0.30;;
35530;SDS011;21637;53.352;-6.356;2024-02-21T04:53:33;0.65;;;0.38;;
35530;SDS011;21637;53.352;-6.356;2024-02-21T04:55:59;0.47;;;0.30;;
35530;SDS011;21637;53.352;-6.356;2024-02-21T04:58:24;0.10;;;0.10;;
35530;SDS011;21637;53.352;-6.356;2024-02-21T05:00:50;1.10;;;0.10;;
35530;SDS011;21637;53.352;-6.356;2024-02-21T05:03:16;0.43;;;0.17;;
35530;SDS011;21637;53.352;-6.356;2024-02-21T05:05:42;0.10;;;0.10;;
35530;SDS011;21637;53.352;-6.356;2024-02-21T05:08:09;0.28;;;0.10;;
35530;SDS011;21637;53.352;-6.356;2024-02-21T05:10:35;0.00;;;0.00;;
35530;SDS011;21637;53.352;-6.356;2024-02-21T05:13:01;0.80;;;0.10;;
35530;SDS011;21637;53.352;-6.356;2024-02-21T05:15:27;0.00;;;0.00;;
35530;SDS011;21637;53.352;-6.356;2024-02-21T05:17:52;0.15;;;0.10;;
35530;SDS011;21637;53.352;-6.356;2024-02-21T05:20:18;0.88;;;0.10;;
35530;SDS011;21637;53.352;-6.356;2024-02-21T05:22:44;0.90;;;0.03;;
35530;SDS011;21637;53.352;-6.356;2024-02-21T05:25:09;0.10;;;0.00;;
35530;SDS011;21637;53.352;-6.356;2024-02-21T05:27:35;0.03;;;0.00;;
35530;SDS011;21637;53.352;-6.356;2024-02-21T05:30:02;0.10;;;0.05;;
35530;SDS011;21637;53.352;-6.356;2024-02-21T05:32:28;0.25;;;0.15;;
35530;SDS011;21637;53.352;-6.356;2024-02-21T05:34:54;1.98;;;0.52;;
35530;SDS011;21637;53.352;-6.356;2024-02-21T05:37:20;0.00;;;0.00;;
35530;SDS011;21637;53.352;-6.356;2024-02-21T05:39:46;1.25;;;0.10;;
35530;SDS011;21637;53.352;-6.356;2024-02-21T05:42:12;1.13;;;0.32;;
35530;SDS011;21637;53.352;-6.356;2024-02-21T05:44:37;0.63;;;0.08;;
35530;SDS011;21637;53.352;-6.356;2024-02-21T05:47:03;0.00;;;0.00;;
35530;SDS011;21637;53.352;-6.356;2024-02-21T05:49:29;0.00;;;0.00;;
35530;SDS011;21637;53.352;-6.356;2024-02-21T05:51:55;0.20;;;0.10;;
35530;SDS011;21637;53.352;-6.356;2024-02-21T05:54:20;0.73;;;0.13;;
35530;SDS011;21637;53.352;-6.356;2024-02-21T05:56:46;1.25;;;0.10;;
35530;SDS011;21637;53.352;-6.356;2024-02-21T05:59:12;1.92;;;0.40;;
35530;SDS011;21637;53.352;-6.356;2024-02-21T06:01:37;0.10;;;0.10;;
35530;SDS011;21637;53.352;-6.356;2024-02-21T06:04:03;0.98;;;0.20;;
35530;SDS011;21637;53.352;-6.356;2024-02-21T06:06:29;0.35;;;0.20;;
35530;SDS011;21637;53.352;-6.356;2024-02-21T06:08:55;0.47;;;0.20;;
35530;SDS011;21637;53.352;-6.356;2024-02-21T06:11:22;1.40;;;0.10;;
35530;SDS011;21637;53.352;-6.356;2024-02-21T06:13:48;0.30;;;0.10;;
35530;SDS011;21637;53.352;-6.356;2024-02-21T06:16:13;0.73;;;0.28;;
35530;SDS011;21637;53.352;-6.356;2024-02-21T06:18:39;0.30;;;0.10;;
35530;SDS011;21637;53.352;-6.356;2024-02-21T06:21:05;0.77;;;0.10;;
35530;SDS011;21637;53.352;-6.356;2024-02-21T06:23:30;0.90;;;0.03;;
35530;SDS011;21637;53.352;-6.356;2024-02-21T06:25:56;1.08;;;0.15;;
35530;SDS011;21637;53.352;-6.356;2024-02-21T06:28:22;0.13;;;0.13;;
35530;SDS011;21637;53.352;-6.356;2024-02-21T06:30:48;0.00;;;0.00;;
35530;SDS011;21637;53.352;-6.356;2024-02-21T06:33:13;1.10;;;0.28;;
35530;SDS011;21637;53.352;-6.356;2024-02-21T06:35:39;0.28;;;0.10;;
35530;SDS011;21637;53.352;-6.356;2024-02-21T06:38:07;0.20;;;0.00;;
35530;SDS011;21637;53.352;-6.356;2024-02-21T06:40:33;0.30;;;0.10;;
35530;SDS011;21637;53.352;-6.356;2024-02-21T06:43:04;0.17;;;0.10;;
35530;SDS011;21637;53.352;-6.356;2024-02-21T06:45:30;1.75;;;0.20;;
35530;SDS011;21637;53.352;-6.356;2024-02-21T06:47:55;3.15;;;0.20;;
35530;SDS011;21637;53.352;-6.356;2024-02-21T06:50:21;0.20;;;0.20;;
35530;SDS011;21637;53.352;-6.356;2024-02-21T06:52:47;0.52;;;0.10;;
35530;SDS011;21637;53.352;-6.356;2024-02-21T06:55:12;0.65;;;0.15;;
35530;SDS011;21637;53.352;-6.356;2024-02-21T06:57:38;2.40;;;0.20;;
35530;SDS011;21637;53.352;-6.356;2024-02-21T07:00:04;0.28;;;0.03;;
35530;SDS011;21637;53.352;-6.356;2024-02-21T07:02:33;0.77;;;0.20;;
35530;SDS011;21637;53.352;-6.356;2024-02-21T07:04:59;0.55;;;0.10;;
35530;SDS011;21637;53.352;-6.356;2024-02-21T07:07:25;1.80;;;0.70;;
35530;SDS011;21637;53.352;-6.356;2024-02-21T07:09:50;0.10;;;0.10;;
35530;SDS011;21637;53.352;-6.356;2024-02-21T07:12:18;1.50;;;0.10;;
35530;SDS011;21637;53.352;-6.356;2024-02-21T07:14:44;0.00;;;0.00;;
35530;SDS011;21637;53.352;-6.356;2024-02-21T07:17:10;0.28;;;0.10;;
35530;SDS011;21637;53.352;-6.356;2024-02-21T07:19:36;0.43;;;0.38;;
35530;SDS011;21637;53.352;-6.356;2024-02-21T07:22:01;0.40;;;0.20;;
35530;SDS011;21637;53.352;-6.356;2024-02-21T07:24:27;0.10;;;0.10;;
35530;SDS011;21637;53.352;-6.356;2024-02-21T07:26:53;0.70;;;0.15;;
35530;SDS011;21637;53.352;-6.356;2024-02-21T07:29:19;1.33;;;0.20;;
35530;SDS011;21637;53.352;-6.356;2024-02-21T07:31:45;1.42;;;0.17;;
35530;SDS011;21637;53.352;-6.356;2024-02-21T07:34:13;0.30;;;0.13;;
35530;SDS011;21637;53.352;-6.356;2024-02-21T07:36:40;0.75;;;0.22;;
35530;SDS011;21637;53.352;-6.356;2024-02-21T07:39:07;0.22;;;0.22;;
35530;SDS011;21637;53.352;-6.356;2024-02-21T07:41:33;0.20;;;0.15;;
35530;SDS011;21637;53.352;-6.356;2024-02-21T07:43:59;0.55;;;0.30;;
35530;SDS011;21637;53.352;-6.356;2024-02-21T07:46:25;0.10;;;0.10;;
35530;SDS011;21637;53.352;-6.356;2024-02-21T07:48:51;1.23;;;0.35;;
35530;SDS011;21637;53.352;-6.356;2024-02-21T07:51:17;2.08;;;0.40;;
35530;SDS011;21637;53.352;-6.356;2024-02-21T07:53:43;0.57;;;0.13;;
35530;SDS011;21637;53.352;-6.356;2024-02-21T07:56:13;0.55;;;0.10;;
35530;SDS011;21637;53.352;-6.356;2024-02-21T07:58:43;0.52;;;0.20;;
35530;SDS011;21637;53.352;-6.356;2024-02-21T08:01:09;0.52;;;0.20;;
35530;SDS011;21637;53.352;-6.356;2024-02-21T08:03:35;1.58;;;0.20;;
35530;SDS011;21637;53.352;-6.356;2024-02-21T08:06:02;2.58;;;0.45;;
35530;SDS011;21637;53.352;-6.356;2024-02-21T08:08:28;2.70;;;0.60;;
35530;SDS011;21637;53.352;-6.356;2024-02-21T08:10:54;0.77;;;0.28;;
35530;SDS011;21637;53.352;-6.356;2024-02-21T08:13:19;1.58;;;0.40;;
35530;SDS011;21637;53.352;-6.356;2024-02-21T08:15:46;2.15;;;0.30;;
35530;SDS011;21637;53.352;-6.356;2024-02-21T08:18:11;2.63;;;0.20;;
35530;SDS011;21637;53.352;-6.356;2024-02-21T08:20:37;2.90;;;0.63;;
35530;SDS011;21637;53.352;-6.356;2024-02-21T08:23:03;1.48;;;0.25;;
35530;SDS011;21637;53.352;-6.356;2024-02-21T08:25:28;0.70;;;0.28;;
35530;SDS011;21637;53.352;-6.356;2024-02-21T08:27:57;0.50;;;0.15;;
35530;SDS011;21637;53.352;-6.356;2024-02-21T08:30:23;1.17;;;0.30;;
35530;SDS011;21637;53.352;-6.356;2024-02-21T08:32:49;2.10;;;0.40;;
35530;SDS011;21637;53.352;-6.356;2024-02-21T08:35:15;1.55;;;0.20;;
35530;SDS011;21637;53.352;-6.356;2024-02-21T08:37:43;0.73;;;0.20;;
35530;SDS011;21637;53.352;-6.356;2024-02-21T08:40:09;0.63;;;0.30;;
35530;SDS011;21637;53.352;-6.356;2024-02-21T08:42:35;1.17;;;0.20;;
35530;SDS011;21637;53.352;-6.356;2024-02-21T08:45:02;0.10;;;0.10;;
35530;SDS011;21637;53.352;-6.356;2024-02-21T08:47:28;0.20;;;0.20;;
35530;SDS011;21637;53.352;-6.356;2024-02-21T08:49:54;1.60;;;0.40;;
35530;SDS011;21637;53.352;-6.356;2024-02-21T08:52:19;1.42;;;0.20;;
35530;SDS011;21637;53.352;-6.356;2024-02-21T08:54:45;0.25;;;0.22;;
35530;SDS011;21637;53.352;-6.356;2024-02-21T08:57:11;0.52;;;0.30;;
35530;SDS011;21637;53.352;-6.356;2024-02-21T08:59:39;1.45;;;0.65;;
35530;SDS011;21637;53.352;-6.356;2024-02-21T09:02:05;0.70;;;0.40;;
35530;SDS011;21637;53.352;-6.356;2024-02-21T09:04:32;0.52;;;0.22;;
35530;SDS011;21637;53.352;-6.356;2024-02-21T09:06:58;0.90;;;0.30;;
35530;SDS011;21637;53.352;-6.356;2024-02-21T09:09:24;0.75;;;0.20;;
35530;SDS011;21637;53.352;-6.356;2024-02-21T09:11:50;0.22;;;0.10;;
35530;SDS011;21637;53.352;-6.356;2024-02-21T09:14:16;0.80;;;0.30;;
35530;SDS011;21637;53.352;-6.356;2024-02-21T09:16:42;0.63;;;0.20;;
35530;SDS011;21637;53.352;-6.356;2024-02-21T09:19:09;1.50;;;0.35;;
35530;SDS011;21637;53.352;-6.356;2024-02-21T09:21:36;0.40;;;0.20;;
35530;SDS011;21637;53.352;-6.356;2024-02-21T09:24:02;3.67;;;0.60;;
35530;SDS011;21637;53.352;-6.356;2024-02-21T09:26:29;0.30;;;0.20;;
35530;SDS011;21637;53.352;-6.356;2024-02-21T09:28:54;0.45;;;0.30;;
35530;SDS011;21637;53.352;-6.356;2024-02-21T09:31:20;0.50;;;0.30;;
35530;SDS011;21637;53.352;-6.356;2024-02-21T09:33:46;0.82;;;0.20;;
35530;SDS011;21637;53.352;-6.356;2024-02-21T09:36:12;1.15;;;0.30;;
35530;SDS011;21637;53.352;-6.356;2024-02-21T09:38:39;1.45;;;0.38;;
35530;SDS011;21637;53.352;-6.356;2024-02-21T09:41:15;1.42;;;0.32;;
35530;SDS011;21637;53.352;-6.356;2024-02-21T09:43:45;0.43;;;0.25;;
35530;SDS011;21637;53.352;-6.356;2024-02-21T09:46:17;0.40;;;0.30;;
35530;SDS011;21637;53.352;-6.356;2024-02-21T09:49:04;0.85;;;0.20;;
35530;SDS011;21637;53.352;-6.356;2024-02-21T09:52:08;0.50;;;0.20;;
35530;SDS011;21637;53.352;-6.356;2024-02-21T09:54:36;1.33;;;0.30;;
35530;SDS011;21637;53.352;-6.356;2024-02-21T09:57:05;1.00;;;0.47;;
35530;SDS011;21637;53.352;-6.356;2024-02-21T09:59:31;0.57;;;0.30;;
35530;SDS011;21637;53.352;-6.356;2024-02-21T10:01:58;1.10;;;0.40;;
35530;SDS011;21637;53.352;-6.356;2024-02-21T10:04:27;0.20;;;0.20;;
35530;SDS011;21637;53.352;-6.356;2024-02-21T10:06:53;0.47;;;0.30;;
35530;SDS011;21637;53.352;-6.356;2024-02-21T10:09:29;0.70;;;0.50;;
35530;SDS011;21637;53.352;-6.356;2024-02-21T10:11:55;0.47;;;0.40;;
35530;SDS011;21637;53.352;-6.356;2024-02-21T10:14:32;0.40;;;0.40;;
35530;SDS011;21637;53.352;-6.356;2024-02-21T10:16:57;1.65;;;0.60;;
35530;SDS011;21637;53.352;-6.356;2024-02-21T10:19:27;0.77;;;0.22;;
35530;SDS011;21637;53.352;-6.356;2024-02-21T10:24:29;1.63;;;0.17;;
35530;SDS011;21637;53.352;-6.356;2024-02-21T10:26:59;0.70;;;0.17;;
35530;SDS011;21637;53.352;-6.356;2024-02-21T10:29:32;0.57;;;0.25;;
35530;SDS011;21637;53.352;-6.356;2024-02-21T10:32:05;0.17;;;0.17;;
35530;SDS011;21637;53.352;-6.356;2024-02-21T10:34:36;0.38;;;0.20;;
35530;SDS011;21637;53.352;-6.356;2024-02-21T10:37:03;1.80;;;0.40;;
35530;SDS011;21637;53.352;-6.356;2024-02-21T10:39:33;0.25;;;0.20;;
35530;SDS011;21637;53.352;-6.356;2024-02-21T10:42:00;0.40;;;0.30;;
35530;SDS011;21637;53.352;-6.356;2024-02-21T10:44:31;0.20;;;0.10;;
35530;SDS011;21637;53.352;-6.356;2024-02-21T10:46:59;0.20;;;0.20;;
35530;SDS011;21637;53.352;-6.356;2024-02-21T10:49:25;0.10;;;0.10;;
35530;SDS011;21637;53.352;-6.356;2024-02-21T10:51:59;1.50;;;0.40;;
35530;SDS011;21637;53.352;-6.356;2024-02-21T10:54:41;0.98;;;0.30;;
35530;SDS011;21637;53.352;-6.356;2024-02-21T10:57:31;2.70;;;0.30;;
35530;SDS011;21637;53.352;-6.356;2024-02-21T10:59:58;0.45;;;0.20;;
35530;SDS011;21637;53.352;-6.356;2024-02-21T11:02:24;1.48;;;0.20;;
35530;SDS011;21637;53.352;-6.356;2024-02-21T11:04:54;3.97;;;0.40;;
35530;SDS011;21637;53.352;-6.356;2024-02-21T11:07:21;0.55;;;0.40;;
35530;SDS011;21637;53.352;-6.356;2024-02-21T11:09:51;0.82;;;0.20;;
35530;SDS011;21637;53.352;-6.356;2024-02-21T11:12:20;1.50;;;0.30;;
35530;SDS011;21637;53.352;-6.356;2024-02-21T11:14:46;0.70;;;0.70;;
35530;SDS011;21637;53.352;-6.356;2024-02-21T11:17:19;0.63;;;0.38;;
35530;SDS011;21637;53.352;-6.356;2024-02-21T11:19:51;0.75;;;0.22;;
35530;SDS011;21637;53.352;-6.356;2024-02-21T11:22:18;1.75;;;0.52;;
35530;SDS011;21637;53.352;-6.356;2024-02-21T11:24:47;0.77;;;0.25;;
35530;SDS011;21637;53.352;-6.356;2024-02-21T11:27:18;1.38;;;0.40;;
35530;SDS011;21637;53.352;-6.356;2024-02-21T11:29:46;1.33;;;0.70;;
35530;SDS011;21637;53.352;-6.356;2024-02-21T11:32:19;1.15;;;0.43;;
35530;SDS011;21637;53.352;-6.356;2024-02-21T11:34:58;1.25;;;0.30;;
35530;SDS011;21637;53.352;-6.356;2024-02-21T11:37:27;3.72;;;0.50;;
35530;SDS011;21637;53.352;-6.356;2024-02-21T11:39:57;1.23;;;0.40;;
35530;SDS011;21637;53.352;-6.356;2024-02-21T11:42:24;0.77;;;0.30;;
35530;SDS011;21637;53.352;-6.356;2024-02-21T11:44:51;1.33;;;0.40;;
35530;SDS011;21637;53.352;-6.356;2024-02-21T11:47:18;1.88;;;0.30;;
35530;SDS011;21637;53.352;-6.356;2024-02-21T11:49:47;1.00;;;0.30;;
35530;SDS011;21637;53.352;-6.356;2024-02-21T11:52:15;3.80;;;1.00;;
35530;SDS011;21637;53.352;-6.356;2024-02-21T11:54:43;1.45;;;0.43;;
35530;SDS011;21637;53.352;-6.356;2024-02-21T11:57:10;1.70;;;0.70;;
35530;SDS011;21637;53.352;-6.356;2024-02-21T11:59:39;2.63;;;0.43;;
35530;SDS011;21637;53.352;-6.356;2024-02-21T12:02:05;5.72;;;0.70;;
35530;SDS011;21637;53.352;-6.356;2024-02-21T12:04:32;1.27;;;0.45;;
35530;SDS011;21637;53.352;-6.356;2024-02-21T12:06:58;0.93;;;0.40;;
35530;SDS011;21637;53.352;-6.356;2024-02-21T12:09:25;3.38;;;0.40;;
35530;SDS011;21637;53.352;-6.356;2024-02-21T12:11:58;7.80;;;0.50;;
35530;SDS011;21637;53.352;-6.356;2024-02-21T12:14:32;2.45;;;0.50;;
35530;SDS011;21637;53.352;-6.356;2024-02-21T12:16:59;2.30;;;0.57;;
35530;SDS011;21637;53.352;-6.356;2024-02-21T12:19:28;0.60;;;0.47;;
35530;SDS011;21637;53.352;-6.356;2024-02-21T12:21:54;1.73;;;0.52;;
35530;SDS011;21637;53.352;-6.356;2024-02-21T12:24:23;5.50;;;0.70;;
35530;SDS011;21637;53.352;-6.356;2024-02-21T12:26:50;1.27;;;0.60;;
35530;SDS011;21637;53.352;-6.356;2024-02-21T12:29:17;1.58;;;0.90;;
35530;SDS011;21637;53.352;-6.356;2024-02-21T12:31:46;2.25;;;0.73;;
35530;SDS011;21637;53.352;-6.356;2024-02-21T12:34:12;5.55;;;1.10;;
35530;SDS011;21637;53.352;-6.356;2024-02-21T12:36:42;1.70;;;0.75;;
35530;SDS011;21637;53.352;-6.356;2024-02-21T12:39:09;4.35;;;0.80;;
35530;SDS011;21637;53.352;-6.356;2024-02-21T12:41:35;3.25;;;0.80;;
35530;SDS011;21637;53.352;-6.356;2024-02-21T12:44:04;4.15;;;1.15;;
35530;SDS011;21637;53.352;-6.356;2024-02-21T12:46:32;4.03;;;1.00;;
35530;SDS011;21637;53.352;-6.356;2024-02-21T12:49:01;6.00;;;1.13;;
35530;SDS011;21637;53.352;-6.356;2024-02-21T12:51:28;5.30;;;1.20;;
35530;SDS011;21637;53.352;-6.356;2024-02-21T12:53:54;9.40;;;1.73;;
35530;SDS011;21637;53.352;-6.356;2024-02-21T12:56:20;3.40;;;1.05;;
35530;SDS011;21637;53.352;-6.356;2024-02-21T12:58:46;5.28;;;0.95;;
35530;SDS011;21637;53.352;-6.356;2024-02-21T13:01:12;10.38;;;1.63;;
35530;SDS011;21637;53.352;-6.356;2024-02-21T13:03:38;7.40;;;1.25;;
35530;SDS011;21637;53.352;-6.356;2024-02-21T13:06:04;5.97;;;1.20;;
35530;SDS011;21637;53.352;-6.356;2024-02-21T13:08:31;4.22;;;1.05;;
35530;SDS011;21637;53.352;-6.356;2024-02-21T13:10:59;6.70;;;1.27;;
35530;SDS011;21637;53.352;-6.356;2024-02-21T13:13:25;4.18;;;0.93;;
35530;SDS011;21637;53.352;-6.356;2024-02-21T13:15:51;7.13;;;0.95;;
35530;SDS011;21637;53.352;-6.356;2024-02-21T13:18:16;4.43;;;0.75;;
35530;SDS011;21637;53.352;-6.356;2024-02-21T13:20:42;3.10;;;0.80;;
35530;SDS011;21637;53.352;-6.356;2024-02-21T13:23:08;5.35;;;0.90;;
35530;SDS011;21637;53.352;-6.356;2024-02-21T13:25:33;4.15;;;0.90;;
35530;SDS011;21637;53.352;-6.356;2024-02-21T13:27:59;4.97;;;1.02;;
35530;SDS011;21637;53.352;-6.356;2024-02-21T13:30:25;3.92;;;0.95;;
35530;SDS011;21637;53.352;-6.356;2024-02-21T13:32:51;5.28;;;0.80;;
35530;SDS011;21637;53.352;-6.356;2024-02-21T13:35:17;4.70;;;1.02;;
35530;SDS011;21637;53.352;-6.356;2024-02-21T13:37:43;3.92;;;0.93;;
35530;SDS011;21637;53.352;-6.356;2024-02-21T13:40:08;3.45;;;1.10;;
35530;SDS011;21637;53.352;-6.356;2024-02-21T13:42:35;6.97;;;0.77;;
35530;SDS011;21637;53.352;-6.356;2024-02-21T13:45:01;2.10;;;0.65;;
35530;SDS011;21637;53.352;-6.356;2024-02-21T13:47:28;4.18;;;0.70;;
35530;SDS011;21637;53.352;-6.356;2024-02-21T13:49:54;6.57;;;1.00;;
35530;SDS011;21637;53.352;-6.356;2024-02-21T13:52:20;13.10;;;1.92;;
35530;SDS011;21637;53.352;-6.356;2024-02-21T13:54:47;5.20;;;0.90;;
35530;SDS011;21637;53.352;-6.356;2024-02-21T13:57:13;6.68;;;1.13;;
35530;SDS011;21637;53.352;-6.356;2024-02-21T13:59:39;5.30;;;0.85;;
35530;SDS011;21637;53.352;-6.356;2024-02-21T14:02:05;2.75;;;0.90;;
35530;SDS011;21637;53.352;-6.356;2024-02-21T14:04:34;3.17;;;0.93;;
35530;SDS011;21637;53.352;-6.356;2024-02-21T14:07:00;4.97;;;1.13;;
35530;SDS011;21637;53.352;-6.356;2024-02-21T14:09:26;8.05;;;1.50;;
35530;SDS011;21637;53.352;-6.356;2024-02-21T14:11:52;4.68;;;1.00;;
35530;SDS011;21637;53.352;-6.356;2024-02-21T14:14:19;6.68;;;1.27;;
35530;SDS011;21637;53.352;-6.356;2024-02-21T14:16:45;6.20;;;1.35;;
35530;SDS011;21637;53.352;-6.356;2024-02-21T14:19:12;5.28;;;1.42;;
35530;SDS011;21637;53.352;-6.356;2024-02-21T14:21:38;4.43;;;1.35;;
35530;SDS011;21637;53.352;-6.356;2024-02-21T14:24:05;9.57;;;1.65;;
35530;SDS011;21637;53.352;-6.356;2024-02-21T14:26:31;6.68;;;1.20;;
35530;SDS011;21637;53.352;-6.356;2024-02-21T14:28:57;5.60;;;1.30;;
35530;SDS011;21637;53.352;-6.356;2024-02-21T14:31:23;8.30;;;1.30;;
35530;SDS011;21637;53.352;-6.356;2024-02-21T14:33:53;5.15;;;1.35;;